Time;durP1;ratioP1;P1;durP2;ratioP2;P2;SDS_P1;SDS_P2;PMS_P1;PMS_P2;Temp;Humidity;BMP_temperature;BMP_pressure;BME280_temperature;BME280_humidity;BME280_pressure;Samples;Min_cycle;Max_cycle;Signal;HPM_P1;HPM_P2
2021/04/05 00:00:45;;;;;;;40.23;26.35;;;;;;;0.87;100.00;100663.50;1789269;80;21516;-88
2021/04/05 00:03:15;;;;;;;35.78;25.72;;;;;;;0.83;100.00;100662.77;1789192;80;21127;-88
2021/04/05 00:05:51;;;;;;;36.50;23.92;;;;;;;0.85;100.00;100659.68;1789278;80;21123;-88
2021/04/05 00:08:20;;;;;;;31.62;22.90;;;;;;;0.85;100.00;100662.25;1789256;80;21187;-88
2021/04/05 00:10:55;;;;;;;30.27;23.10;;;;;;;0.85;100.00;100657.12;1789601;80;21175;-88
2021/04/05 00:13:35;;;;;;;28.75;22.58;;;;;;;0.83;100.00;100665.76;1773166;80;21435;-88
2021/04/05 00:16:05;;;;;;;28.67;22.15;;;;;;;0.78;100.00;100660.36;1777350;80;21178;-88
2021/04/05 00:18:35;;;;;;;30.43;23.05;;;;;;;0.74;100.00;100658.77;1789214;79;21127;-88
2021/04/05 00:21:13;;;;;;;37.10;25.77;;;;;;;0.73;100.00;100659.65;1789126;80;21080;-88
2021/04/05 00:23:41;;;;;;;34.43;26.30;;;;;;;0.72;100.00;100664.84;1789293;79;21123;-88
2021/04/05 00:26:13;;;;;;;;;;;;;;;0.69;100.00;100660.66;1792003;79;21196;-88
2021/04/05 00:28:42;;;;;;;32.95;23.87;;;;;;;0.66;100.00;100657.36;1789167;79;20262;-88
2021/04/05 00:31:11;;;;;;;29.67;22.27;;;;;;;0.62;100.00;100650.22;1789149;80;21147;-88
2021/04/05 00:33:45;;;;;;;27.40;21.68;;;;;;;0.61;100.00;100649.82;1789119;79;21218;-88
2021/04/05 00:36:14;;;;;;;34.13;24.00;;;;;;;0.58;100.00;100644.36;1789131;79;21151;-88
2021/04/05 00:38:43;;;;;;;34.00;24.87;;;;;;;0.50;100.00;100634.80;1789166;79;21287;-88
2021/04/05 00:41:15;;;;;;;34.03;23.98;;;;;;;0.42;100.00;100635.49;1789135;80;21104;-87
2021/04/05 00:43:49;;;;;;;36.00;24.25;;;;;;;0.39;100.00;100626.61;1789262;80;21143;-87
2021/04/05 00:46:24;;;;;;;38.30;26.02;;;;;;;0.35;100.00;100639.14;1789150;79;21155;-87
2021/04/05 00:49:00;;;;;;;35.63;22.82;;;;;;;0.26;100.00;100633.42;1789104;79;21215;-87
2021/04/05 00:51:28;;;;;;;38.33;24.50;;;;;;;0.20;100.00;100636.62;1789101;79;21332;-88
2021/04/05 00:53:58;;;;;;;36.00;23.75;;;;;;;0.18;100.00;100630.70;1789006;80;21167;-88
2021/04/05 00:56:32;;;;;;;35.10;23.95;;;;;;;0.20;100.00;100627.20;1789237;79;21230;-88
2021/04/05 00:59:03;;;;;;;39.38;25.45;;;;;;;0.24;100.00;100626.69;1789092;79;21135;-88
2021/04/05 01:01:32;;;;;;;48.78;32.75;;;;;;;0.23;100.00;100627.11;1789410;80;21115;-88
2021/04/05 01:04:01;;;;;;;48.40;32.08;;;;;;;0.22;100.00;100629.27;1789157;79;21207;-87
2021/04/05 01:06:32;;;;;;;62.43;37.75;;;;;;;0.24;100.00;100632.63;1789105;79;21203;-88
2021/04/05 01:09:01;;;;;;;48.00;30.80;;;;;;;0.24;100.00;100633.91;1789276;79;21534;-88
2021/04/05 01:11:31;;;;;;;45.70;30.00;;;;;;;0.18;100.00;100628.98;1789003;80;21166;-87
2021/04/05 01:14:01;;;;;;;36.55;26.02;;;;;;;0.14;100.00;100629.95;1789055;80;21507;-88
2021/04/05 01:16:31;;;;;;;30.55;21.45;;;;;;;0.15;100.00;100629.08;1789130;79;21407;-88
2021/04/05 01:19:07;;;;;;;24.98;19.10;;;;;;;0.14;100.00;100629.53;1789192;80;21124;-87
2021/04/05 01:21:38;;;;;;;25.40;19.87;;;;;;;0.14;100.00;100630.81;1789017;79;21123;-87
2021/04/05 01:24:07;;;;;;;26.73;19.95;;;;;;;0.17;100.00;100637.55;1789377;80;21546;-88
2021/04/05 01:26:35;;;;;;;32.13;22.85;;;;;;;0.18;100.00;100639.23;1789148;79;21115;-87
2021/04/05 01:29:03;;;;;;;30.77;23.73;;;;;;;0.17;100.00;100641.82;1775179;79;22027;-88
2021/04/05 01:31:31;;;;;;;40.10;27.65;;;;;;;0.13;100.00;100640.66;1808347;79;21112;-87
2021/04/05 01:34:00;;;;;;;38.40;27.90;;;;;;;0.06;100.00;100643.44;1808306;79;21155;-88
2021/04/05 01:36:28;;;;;;;39.35;27.20;;;;;;;-0.05;100.00;100642.49;1808250;79;21670;-88
2021/04/05 01:38:56;;;;;;;37.23;26.48;;;;;;;-0.18;100.00;100646.72;1808410;79;21155;-88
2021/04/05 01:41:29;;;;;;;35.88;26.42;;;;;;;-0.23;100.00;100643.89;1808258;79;21363;-87
2021/04/05 01:43:59;;;;;;;39.27;27.42;;;;;;;-0.28;100.00;100636.34;1808312;79;21608;-88
2021/04/05 01:46:30;;;;;;;27.20;20.95;;;;;;;-0.33;100.00;100635.20;1808457;78;21107;-88
2021/04/05 01:49:01;;;;;;;31.20;23.70;;;;;;;-0.37;100.00;100633.63;1808466;79;21064;-88
2021/04/05 01:51:30;;;;;;;30.45;21.00;;;;;;;-0.39;100.00;100628.14;1808353;79;21183;-88
2021/04/05 01:53:59;;;;;;;30.50;22.02;;;;;;;-0.45;100.00;100631.73;1808223;79;21592;-87
2021/04/05 01:56:28;;;;;;;30.12;22.22;;;;;;;-0.46;100.00;100626.64;1808176;79;21056;-88
2021/04/05 01:58:56;;;;;;;26.75;20.20;;;;;;;-0.46;100.00;100627.50;1808353;79;21151;-88
2021/04/05 02:01:29;;;;;;;22.95;18.35;;;;;;;-0.43;100.00;100629.12;1808382;79;21147;-88
2021/04/05 02:03:58;;;;;;;26.48;19.73;;;;;;;-0.42;100.00;100629.52;1779972;80;21603;-88
2021/04/05 02:06:35;;;;;;;25.60;20.57;;;;;;;-0.43;100.00;100632.51;1788368;79;21136;-88
2021/04/05 02:09:07;;;;;;;28.30;20.90;;;;;;;-0.44;100.00;100634.66;1814314;79;21135;-88
2021/04/05 02:11:38;;;;;;;;;;;;;;;-0.51;100.00;100630.19;1817101;78;21143;-88
2021/04/05 02:14:09;;;;;;;29.15;20.43;;;;;;;-0.59;100.00;100631.27;1814332;79;20291;-87
2021/04/05 02:16:38;;;;;;;28.57;18.90;;;;;;;-0.68;100.00;100625.53;1814212;78;21464;-88
2021/04/05 02:19:07;;;;;;;30.00;18.48;;;;;;;-0.75;100.00;100628.32;1814436;79;21359;-88
2021/04/05 02:21:35;;;;;;;34.45;20.37;;;;;;;-0.81;100.00;100633.16;1814239;78;21160;-88
2021/04/05 02:24:06;;;;;;;35.08;19.25;;;;;;;-0.83;100.00;100631.93;1814220;79;21563;-88
2021/04/05 02:26:36;;;;;;;30.62;20.05;;;;;;;-0.84;100.00;100625.13;1814524;79;21166;-88
2021/04/05 02:29:06;;;;;;;38.10;20.85;;;;;;;-0.84;100.00;100631.98;1814585;78;21475;-88
2021/04/05 02:31:37;;;;;;;38.55;21.70;;;;;;;-0.84;100.00;100632.80;1814505;79;21403;-88
2021/04/05 02:34:11;;;;;;;35.55;19.70;;;;;;;-0.82;100.00;100632.75;1814259;78;21570;-88
2021/04/05 02:36:41;;;;;;;32.55;18.85;;;;;;;-0.82;100.00;100634.03;1810602;78;21124;-88
2021/04/05 02:39:11;;;;;;;47.70;25.32;;;;;;;-0.81;100.00;100639.12;1814430;79;21048;-88
2021/04/05 02:41:44;;;;;;;47.07;23.83;;;;;;;-0.79;100.00;100636.52;1814613;78;21448;-88
2021/04/05 02:44:14;;;;;;;55.12;28.23;;;;;;;-0.75;100.00;100637.27;1814414;79;21522;-87
2021/04/05 02:46:44;;;;;;;54.80;28.20;;;;;;;-0.72;100.00;100641.86;1814334;78;21151;-88
2021/04/05 02:49:16;;;;;;;45.12;25.05;;;;;;;-0.69;100.00;100635.81;1810354;79;21060;-88
2021/04/05 02:51:48;;;;;;;36.00;21.15;;;;;;;-0.69;100.00;100641.78;1814502;78;21567;-88
2021/04/05 02:54:21;;;;;;;33.85;22.17;;;;;;;-0.70;100.00;100643.94;1814429;79;21162;-88
2021/04/05 02:56:51;;;;;;;40.75;24.98;;;;;;;-0.67;100.00;100642.56;1814542;79;21634;-87
2021/04/05 02:59:21;;;;;;;41.55;24.60;;;;;;;-0.64;100.00;100642.48;1814438;79;21131;-88
2021/04/05 03:01:50;;;;;;;42.08;25.62;;;;;;;-0.62;100.00;100650.56;1814563;79;21048;-87
2021/04/05 03:04:20;;;;;;;37.17;22.77;;;;;;;-0.61;100.00;100649.23;1814541;78;21183;-87
2021/04/05 03:06:52;;;;;;;35.00;22.30;;;;;;;-0.64;100.00;100646.32;1814496;78;21079;-86
2021/04/05 03:09:21;;;;;;;36.58;23.10;;;;;;;-0.65;100.00;100645.09;1814402;78;22148;-88
2021/04/05 03:11:52;;;;;;;34.65;24.43;;;;;;;-0.61;100.00;100639.45;1814182;78;21127;-87
2021/04/05 03:14:21;;;;;;;32.63;22.98;;;;;;;-0.58;100.00;100634.23;1814727;79;21136;-87
2021/04/05 03:16:53;;;;;;;29.57;21.07;;;;;;;-0.56;100.00;100640.97;1814557;79;21488;-87
2021/04/05 03:19:22;;;;;;;;;;;;;;;-0.56;100.00;100641.42;1817235;79;21156;-87
2021/04/05 03:21:50;;;;;;;30.02;21.35;;;;;;;-0.56;100.00;100635.86;1814529;79;21368;-87
2021/04/05 03:24:19;;;;;;;31.33;22.82;;;;;;;-0.51;100.00;100633.17;1814485;79;21104;-87
2021/04/05 03:26:47;;;;;;;26.85;19.42;;;;;;;-0.46;100.00;100641.57;1814645;79;21112;-87
2021/04/05 03:29:19;;;;;;;34.78;24.98;;;;;;;-0.42;100.00;100634.19;1813834;78;21175;-87
2021/04/05 03:31:49;;;;;;;32.17;22.73;;;;;;;-0.40;100.00;100641.84;1807175;79;21193;-87
2021/04/05 03:34:24;;;;;;;34.63;22.60;;;;;;;-0.40;100.00;100638.83;1814726;78;21192;-88
2021/04/05 03:36:56;;;;;;;29.77;22.52;;;;;;;-0.40;100.00;100634.98;1800098;78;21159;-88
2021/04/05 03:39:25;;;;;;;26.37;19.32;;;;;;;-0.36;100.00;100635.73;1801525;79;21166;-88
2021/04/05 03:42:07;;;;;;;27.52;21.17;;;;;;;-0.33;100.00;100635.20;1791522;79;21202;-88
2021/04/05 03:44:49;;;;;;;30.95;21.75;;;;;;;-0.32;100.00;100633.05;1808281;79;21127;-87
2021/04/05 03:47:34;;;;;;;24.35;19.17;;;;;;;-0.32;100.00;100633.05;1810797;79;21333;-87
2021/04/05 03:50:11;;;;;;;26.97;21.87;;;;;;;-0.32;100.00;100639.44;1798954;79;21100;-88
2021/04/05 03:52:44;;;;;;;28.20;21.00;;;;;;;-0.29;100.00;100633.84;1786897;79;21135;-88
2021/04/05 03:55:13;;;;;;;29.77;21.50;;;;;;;-0.26;100.00;100635.02;1804502;78;21606;-88
2021/04/05 03:57:47;;;;;;;25.30;19.12;;;;;;;-0.25;100.00;100637.55;1809093;78;21131;-88
2021/04/05 04:00:20;;;;;;;28.42;21.07;;;;;;;-0.19;100.00;100639.06;1804724;79;21366;-88
2021/04/05 04:02:53;;;;;;;30.08;21.05;;;;;;;-0.16;100.00;100630.84;1802180;79;21131;-87
2021/04/05 04:05:39;;;;;;;40.48;25.27;;;;;;;-0.11;100.00;100627.33;1814547;78;21171;-88
2021/04/05 04:10:54;;;;;;;51.65;28.47;;;;;;;-0.03;100.00;100618.52;1836094;78;22346;-88
2021/04/05 04:13:23;;;;;;;39.40;25.00;;;;;;;-0.08;100.00;100621.67;1808608;79;21104;-88
2021/04/05 04:15:52;;;;;;;35.15;23.25;;;;;;;-0.07;100.00;100621.22;1808576;79;21301;-88
2021/04/05 04:18:21;;;;;;;32.90;21.90;;;;;;;-0.09;100.00;100621.73;1808480;78;21643;-88
2021/04/05 04:20:50;;;;;;;35.13;23.98;;;;;;;-0.05;100.00;100624.58;1808484;79;21084;-87
2021/04/05 04:23:18;;;;;;;32.25;22.60;;;;;;;0.03;100.00;100624.35;1808398;78;21060;-87
2021/04/05 04:25:47;;;;;;;31.40;21.95;;;;;;;0.12;100.00;100621.05;1808329;79;21156;-87
2021/04/05 04:28:15;;;;;;;31.20;21.97;;;;;;;0.21;100.00;100618.62;1808213;79;21535;-87
2021/04/05 04:30:44;;;;;;;31.55;21.82;;;;;;;0.29;100.00;100624.34;1808298;78;21186;-88
2021/04/05 04:33:12;;;;;;;33.80;23.80;;;;;;;0.38;100.00;100624.94;1805383;77;21155;-88
2021/04/05 04:35:40;;;;;;;36.38;24.25;;;;;;;0.42;100.00;100622.23;1776351;80;21572;-88
2021/04/05 04:38:09;;;;;;;40.90;24.05;;;;;;;0.45;100.00;100623.42;1776577;79;21444;-88
2021/04/05 04:40:37;;;;;;;49.15;25.40;;;;;;;0.74;100.00;100624.62;1789084;78;21658;-89
2021/04/05 04:43:07;;;;;;;45.05;27.30;;;;;;;1.58;100.00;100631.48;1808136;78;21063;-89
2021/04/05 04:45:36;;;;;;;50.30;24.43;;;;;;;2.13;100.00;100627.22;1808435;79;21490;-89
2021/04/05 04:48:05;;;;;;;47.75;25.55;;;;;;;2.40;100.00;100621.05;1808365;79;21599;-89
2021/04/05 04:50:34;;;;;;;65.17;27.30;;;;;;;2.58;100.00;100616.87;1808293;79;21112;-89
2021/04/05 04:53:03;;;;;;;45.78;24.27;;;;;;;2.76;100.00;100620.41;1808368;79;21368;-88
2021/04/05 04:55:38;;;;;;;69.75;27.60;;;;;;;2.92;100.00;100612.89;1808407;79;21155;-90
2021/04/05 04:58:10;;;;;;;64.55;26.62;;;;;;;2.92;100.00;100612.42;1783861;79;21051;-90
2021/04/05 05:00:38;;;;;;;55.73;25.00;;;;;;;2.97;100.00;100601.94;1776622;80;21150;-90
2021/04/05 05:03:10;;;;;;;49.20;26.07;;;;;;;3.06;100.00;100601.54;1782738;77;21139;-91
2021/04/05 05:05:39;;;;;;;48.63;26.95;;;;;;;3.09;100.00;100598.81;1793714;79;21352;-90
2021/04/05 05:08:07;;;;;;;43.28;25.08;;;;;;;3.04;100.00;100589.19;1779058;79;21610;-92
2021/04/05 05:10:37;;;;;;;57.15;24.87;;;;;;;2.97;100.00;100593.75;1792609;79;21219;-91
2021/04/05 05:13:05;;;;;;;51.70;30.35;;;;;;;3.00;100.00;100596.67;1766042;80;21159;-92
2021/04/05 05:15:36;;;;;;;49.33;29.45;;;;;;;3.07;100.00;100599.35;1766200;81;21551;-91
2021/04/05 05:18:05;;;;;;;53.92;29.32;;;;;;;3.10;100.00;100595.80;1779052;79;21360;-90
2021/04/05 05:20:33;;;;;;;62.80;30.15;;;;;;;3.13;100.00;100596.94;1794756;79;21165;-90
2021/04/05 05:23:03;;;;;;;56.05;30.12;;;;;;;3.19;100.00;100591.98;1796939;79;21177;-90
2021/04/05 05:25:34;;;;;;;59.30;35.10;;;;;;;3.23;100.00;100596.09;1794274;78;21179;-91
2021/04/05 05:28:08;;;;;;;60.20;37.00;;;;;;;3.26;100.00;100594.66;1785687;78;21136;-91
2021/04/05 05:30:41;;;;;;;49.48;33.30;;;;;;;3.23;100.00;100593.06;1767138;79;21165;-91
2021/04/05 05:33:09;;;;;;;57.67;34.20;;;;;;;3.13;100.00;100587.50;1765779;81;21168;-91
2021/04/05 05:35:38;;;;;;;51.48;30.57;;;;;;;3.06;100.00;100585.25;1771248;79;21112;-92
2021/04/05 05:38:07;;;;;;;52.67;29.63;;;;;;;3.04;100.00;100576.32;1784610;79;21727;-91
2021/04/05 05:40:36;;;;;;;57.15;36.13;;;;;;;3.12;100.00;100581.14;1727757;81;21541;-91
2021/04/05 05:43:47;;;;;;;47.93;31.35;;;;;;;3.14;100.00;100575.45;1708554;84;21451;-92
2021/04/05 05:46:32;;;;;;;58.78;33.78;;;;;;;3.08;100.00;100567.58;1776684;79;21116;-89
2021/04/05 05:49:11;;;;;;;45.52;30.95;;;;;;;3.09;100.00;100570.51;1795232;78;21223;-90
2021/04/05 05:52:08;;;;;;;57.03;31.05;;;;;;;3.18;100.00;100573.58;1795113;79;21061;-91
2021/04/05 05:55:00;;;;;;;60.75;32.03;;;;;;;3.23;100.00;100569.89;1754442;79;21028;-92
2021/04/05 05:57:37;;;;;;;71.82;31.50;;;;;;;3.34;100.00;100571.98;1788796;79;22328;-90
2021/04/05 06:00:22;;;;;;;53.65;33.55;;;;;;;3.41;100.00;100574.66;1686893;83;21472;-93
2021/04/05 06:03:21;;;;;;;56.15;34.03;;;;;;;3.44;100.00;100573.23;1707025;82;21223;-90
2021/04/05 06:06:04;;;;;;;55.43;33.38;;;;;;;3.46;100.00;100562.42;1709204;82;21131;-95
2021/04/05 06:09:05;;;;;;;59.63;32.90;;;;;;;3.62;100.00;100566.86;1746011;81;21163;-89
2021/04/05 06:11:59;;;;;;;52.55;32.25;;;;;;;3.75;100.00;100575.66;1715432;81;21354;-92
2021/04/05 06:15:07;;;;;;;56.33;34.13;;;;;;;3.88;100.00;100579.78;1786615;79;21192;-91
2021/04/05 06:18:16;;;;;;;56.20;36.55;;;;;;;3.94;100.00;100574.80;1765751;81;21136;-91
2021/04/05 06:25:29;;;;;;;55.08;33.60;;;;;;;4.01;100.00;100568.87;1779868;79;20911;-90
2021/04/05 06:28:41;;;;;;;54.58;36.35;;;;;;;4.00;100.00;100574.50;1774432;79;22271;-92
2021/04/05 06:31:53;;;;;;;51.05;33.28;;;;;;;3.92;100.00;100573.59;1794749;78;21136;-89
2021/04/05 06:35:04;;;;;;;65.57;39.35;;;;;;;3.86;100.00;100566.60;1789431;79;21164;-89
2021/04/05 06:42:11;;;;;;;70.90;43.58;;;;;;;3.85;100.00;100564.93;1724233;81;21565;-88
2021/04/05 06:45:10;;;;;;;55.08;36.80;;;;;;;3.81;100.00;100565.97;1747926;80;21160;-89
2021/04/05 06:48:16;;;;;;;64.72;41.23;;;;;;;3.81;100.00;100565.97;1718130;81;21093;-89
2021/04/05 06:51:09;;;;;;;59.93;37.58;;;;;;;3.84;100.00;100574.41;1713666;83;21127;-89
2021/04/05 06:53:59;;;;;;;66.97;39.55;;;;;;;3.84;100.00;100574.84;1713732;83;21824;-89
2021/04/05 06:57:05;;;;;;;59.93;37.65;;;;;;;3.88;100.00;100572.52;1727447;82;21163;-89
2021/04/05 07:00:13;;;;;;;68.17;41.28;;;;;;;3.88;100.00;100572.52;1713767;83;22233;-88
2021/04/05 07:02:59;;;;;;;68.97;42.15;;;;;;;3.89;100.00;100563.86;1713770;83;21192;-89
2021/04/05 07:06:02;;;;;;;53.02;34.08;;;;;;;3.89;100.00;100563.86;1712279;83;21184;-89
2021/04/05 07:08:41;;;;;;;57.23;35.85;;;;;;;3.89;100.00;100567.73;1687697;83;21399;-89
2021/04/05 07:11:49;;;;;;;55.85;36.93;;;;;;;3.88;100.00;100567.38;1710083;83;21614;-88
2021/04/05 07:14:32;;;;;;;55.33;35.98;;;;;;;3.95;100.00;100567.45;1713922;82;21441;-89
2021/04/05 07:17:44;;;;;;;51.37;34.00;;;;;;;3.95;100.00;100567.45;1709991;83;21091;-89
2021/04/05 07:20:35;;;;;;;54.18;33.73;;;;;;;3.95;100.00;100563.13;1714079;82;21171;-88
2021/04/05 07:23:28;;;;;;;57.88;35.60;;;;;;;3.98;100.00;100571.16;1714140;82;21251;-88
2021/04/05 07:26:24;;;;;;;65.22;39.00;;;;;;;4.00;100.00;100563.38;1716895;82;21123;-89
2021/04/05 07:29:03;;;;;;;60.90;36.77;;;;;;;4.00;100.00;100563.38;1749576;81;21579;-89
2021/04/05 07:31:53;;;;;;;56.80;34.43;;;;;;;4.11;100.00;100558.51;1749689;80;21210;-89
2021/04/05 07:34:52;;;;;;;56.53;34.65;;;;;;;4.17;100.00;100558.20;1745737;82;21201;-89
2021/04/05 07:37:30;;;;;;;62.83;37.33;;;;;;;4.17;100.00;100558.20;1749797;81;21047;-89
2021/04/05 07:40:33;;;;;;;68.15;37.95;;;;;;;4.20;100.00;100552.91;1717389;82;21067;-89
2021/04/05 07:43:32;;;;;;;50.35;33.67;;;;;;;4.24;100.00;100551.02;1749917;80;21582;-89
2021/04/05 07:46:29;;;;;;;55.85;34.25;;;;;;;4.22;100.00;100543.80;1750245;81;21915;-88
2021/04/05 07:49:32;;;;;;;63.00;35.75;;;;;;;4.21;100.00;100547.28;1750332;80;21159;-89
2021/04/05 07:56:51;;;;;;;53.10;32.78;;;;;;;4.17;100.00;100540.62;1750306;80;21578;-88
2021/04/05 07:59:51;;;;;;;59.18;35.10;;;;;;;4.10;100.00;100531.06;1750365;82;21367;-88
2021/04/05 08:02:47;;;;;;;55.60;33.48;;;;;;;4.21;100.00;100524.08;1746322;82;21217;-89
2021/04/05 08:05:41;;;;;;;50.08;32.83;;;;;;;4.21;100.00;100524.08;1750344;82;21214;-88
2021/04/05 08:08:50;;;;;;;42.90;29.07;;;;;;;4.22;100.00;100522.74;1749304;82;21143;-90
2021/04/05 08:20:40;;;;;;;55.15;36.40;;;;;;;4.50;100.00;100509.72;1739583;82;21207;-89
2021/04/05 08:23:56;;;;;;;49.88;33.40;;;;;;;4.66;100.00;100509.78;1739625;82;21178;-90
2021/04/05 08:35:15;;;;;;;47.55;34.25;;;;;;;5.19;100.00;100490.22;1746103;80;21134;-89
2021/04/05 08:46:39;;;;;;;50.12;33.30;;;;;;;5.56;100.00;100481.74;1777889;80;21122;-89
2021/04/05 08:53:32;;;;;;;58.98;41.08;;;;;;;5.67;100.00;100465.16;1776215;80;21242;-88
2021/04/05 09:00:26;;;;;;;57.27;39.40;;;;;;;5.88;100.00;100466.16;1764960;79;21139;-88
2021/04/05 09:03:08;;;;;;;54.13;38.23;;;;;;;6.12;100.00;100468.26;1747470;80;21130;-88
2021/04/05 09:10:09;;;;;;;51.50;37.10;;;;;;;6.46;100.00;100462.34;1773036;79;21131;-88
2021/04/05 09:21:19;;;;;;;52.00;38.92;;;;;;;7.40;100.00;100448.76;1745977;82;21642;-89
2021/04/05 09:33:00;;;;;;;47.05;33.92;;;;;;;7.87;100.00;100437.52;1769808;79;21785;-87
2021/04/05 09:40:11;;;;;;;45.00;35.68;;;;;;;8.52;100.00;100430.58;1745803;82;21186;-88
2021/04/05 09:47:29;;;;;;;45.88;33.98;;;;;;;8.92;100.00;100405.33;1745921;82;21151;-88
2021/04/05 09:58:51;;;;;;;36.55;30.43;;;;;;;9.60;100.00;100391.30;1792625;79;21123;-89
2021/04/05 10:10:25;;;;;;;34.08;27.90;;;;;;;9.69;100.00;100371.59;1775735;79;21163;-89
2021/04/05 10:13:03;;;;;;;28.40;24.35;;;;;;;9.86;100.00;100362.50;1763960;80;21136;-91
2021/04/05 10:15:32;;;;;;;29.00;25.70;;;;;;;10.14;100.00;100366.42;1761902;81;21187;-91
2021/04/05 10:18:11;;;;;;;27.22;23.50;;;;;;;10.38;100.00;100365.00;1771053;79;21109;-91
2021/04/05 10:20:52;;;;;;;30.77;26.23;;;;;;;10.49;100.00;100364.18;1794392;78;21373;-90
2021/04/05 10:23:28;;;;;;;28.73;24.25;;;;;;;10.44;100.00;100357.19;1800791;78;21171;-91
2021/04/05 10:25:59;;;;;;;24.95;22.35;;;;;;;10.27;100.00;100359.80;1802875;79;21405;-91
2021/04/05 10:28:35;;;;;;;25.17;20.37;;;;;;;10.16;100.00;100359.78;1771898;80;21172;-91
2021/04/05 10:31:07;;;;;;;27.30;21.73;;;;;;;10.15;100.00;100354.22;1774613;78;21155;-91
2021/04/05 10:33:41;;;;;;;18.85;16.12;;;;;;;10.17;100.00;100349.28;1781022;78;21159;-91
2021/04/05 10:36:15;;;;;;;18.52;15.88;;;;;;;10.24;100.00;100343.95;1767133;79;21188;-91
2021/04/05 10:38:43;;;;;;;23.50;20.97;;;;;;;10.43;100.00;100333.89;1757208;81;21199;-90
2021/04/05 10:41:13;;;;;;;24.02;20.92;;;;;;;10.63;100.00;100334.91;1789846;78;21170;-91
2021/04/05 10:44:00;;;;;;;23.70;20.08;;;;;;;10.77;100.00;100327.30;1802669;79;21185;-91
2021/04/05 10:46:33;;;;;;;21.48;18.17;;;;;;;10.87;100.00;100329.49;1771376;79;22277;-89
2021/04/05 10:49:08;;;;;;;20.50;18.32;;;;;;;10.91;100.00;100324.86;1801330;79;21087;-90
2021/04/05 10:51:49;;;;;;;22.13;19.77;;;;;;;10.91;100.00;100316.59;1772515;80;21117;-90
2021/04/05 10:54:31;;;;;;;22.65;19.62;;;;;;;10.85;100.00;100317.09;1761090;80;21565;-90
2021/04/05 10:57:35;;;;;;;21.97;19.77;;;;;;;10.83;100.00;100304.66;1871536;76;28201;-90
2021/04/05 11:00:10;;;;;;;20.75;18.37;;;;;;;10.80;100.00;100310.95;1843479;76;21185;-91
2021/04/05 11:02:46;;;;;;;21.70;19.15;;;;;;;10.75;100.00;100304.45;1770103;80;21355;-90
2021/04/05 11:05:18;;;;;;;19.80;17.70;;;;;;;10.67;100.00;100298.09;1738653;82;21056;-92
2021/04/05 11:07:59;;;;;;;19.45;17.27;;;;;;;10.69;100.00;100290.99;1767802;80;21181;-91
2021/04/05 11:10:35;;;;;;;21.17;17.57;;;;;;;10.76;100.00;100292.60;1773114;80;21449;-91
2021/04/05 11:13:13;;;;;;;19.05;17.05;;;;;;;10.87;98.99;100287.36;1774727;80;21129;-91
2021/04/05 11:15:44;;;;;;;20.02;17.92;;;;;;;10.96;100.00;100285.77;1774495;80;21367;-91
2021/04/05 11:18:17;;;;;;;18.48;16.25;;;;;;;11.05;100.00;100277.69;1748978;80;21133;-91
2021/04/05 11:20:50;;;;;;;16.97;14.70;;;;;;;11.15;100.00;100278.55;1774499;80;21177;-89
2021/04/05 11:23:22;;;;;;;17.32;13.93;;;;;;;11.26;97.65;100269.84;1774606;80;21574;-90
2021/04/05 11:26:03;;;;;;;17.05;15.13;;;;;;;11.29;92.85;100272.69;1774595;80;21129;-90
2021/04/05 11:28:34;;;;;;;18.92;16.97;;;;;;;11.18;88.37;100275.70;1771597;80;22105;-90
2021/04/05 11:31:11;;;;;;;18.75;16.25;;;;;;;11.07;89.19;100272.34;1774482;80;21196;-91
2021/04/05 11:33:50;;;;;;;16.60;14.90;;;;;;;10.93;91.42;100273.02;1774694;80;22087;-90
2021/04/05 11:36:21;;;;;;;17.57;15.63;;;;;;;10.82;91.94;100271.26;1772756;80;21604;-90
2021/04/05 11:38:55;;;;;;;19.10;15.03;;;;;;;10.63;93.41;100275.84;1774862;80;21094;-90
2021/04/05 11:41:29;;;;;;;17.32;15.63;;;;;;;10.50;93.78;100271.28;1774550;80;21862;-90
2021/04/05 11:44:02;;;;;;;17.48;14.70;;;;;;;10.36;94.34;100266.69;1774475;80;21545;-90
2021/04/05 11:46:34;;;;;;;19.60;15.58;;;;;;;10.26;93.75;100265.75;1771712;80;21161;-90
2021/04/05 11:49:06;;;;;;;18.10;16.20;;;;;;;10.16;94.23;100258.31;1774353;80;22071;-90
2021/04/05 11:52:08;;;;;;;18.40;15.93;;;;;;;10.10;96.04;100265.67;1787664;80;21112;-90
2021/04/05 11:55:03;;;;;;;18.50;16.60;;;;;;;10.08;97.70;100256.33;1825405;78;22364;-90
2021/04/05 11:57:36;;;;;;;17.92;16.05;;;;;;;10.06;100.00;100250.41;1793121;79;21155;-90
2021/04/05 12:00:12;;;;;;;18.90;16.95;;;;;;;10.06;100.00;100249.93;1787477;80;21184;-90
2021/04/05 12:02:45;;;;;;;20.25;17.67;;;;;;;10.12;100.00;100250.41;1735625;81;21206;-90
2021/04/05 12:05:25;;;;;;;17.23;15.43;;;;;;;10.25;100.00;100245.88;1768965;80;21584;-90
2021/04/05 12:08:12;;;;;;;19.37;17.02;;;;;;;10.46;100.00;100241.22;1768097;80;21447;-90
2021/04/05 12:10:45;;;;;;;18.85;15.80;;;;;;;10.70;100.00;100240.53;1764555;80;21198;-90
2021/04/05 12:13:30;;;;;;;19.40;16.00;;;;;;;10.91;94.67;100239.74;1771299;80;21491;-90
2021/04/05 12:16:03;;;;;;;21.93;18.05;;;;;;;11.00;93.42;100238.98;1790189;80;21198;-89
2021/04/05 12:18:32;;;;;;;20.77;17.05;;;;;;;11.06;93.88;100238.92;1748282;80;21227;-90
2021/04/05 12:21:12;;;;;;;19.85;17.75;;;;;;;11.03;93.84;100236.59;1791896;80;22353;-89
2021/04/05 12:23:55;;;;;;;19.85;17.70;;;;;;;11.02;93.59;100233.64;1759788;80;21539;-89
2021/04/05 12:26:26;;;;;;;18.12;16.20;;;;;;;11.07;93.06;100234.56;1772518;80;21172;-89
2021/04/05 12:29:08;;;;;;;17.85;15.83;;;;;;;11.09;89.99;100233.96;1792015;80;22255;-89
2021/04/05 12:31:38;;;;;;;19.60;17.50;;;;;;;11.08;87.63;100228.40;1774031;80;21454;-90
2021/04/05 12:34:13;;;;;;;18.12;16.15;;;;;;;11.04;86.28;100229.95;1792351;80;22288;-89
2021/04/05 12:36:43;;;;;;;16.60;14.78;;;;;;;11.02;85.88;100225.83;1773959;80;21230;-89
2021/04/05 12:39:13;;;;;;;19.00;15.98;;;;;;;11.02;84.90;100225.33;1792302;80;21143;-90
2021/04/05 12:41:46;;;;;;;17.07;15.27;;;;;;;11.00;84.81;100222.51;1786855;80;21047;-90
2021/04/05 12:44:25;;;;;;;16.05;14.20;;;;;;;11.01;82.28;100221.10;1822015;78;21111;-90
2021/04/05 12:46:56;;;;;;;19.07;16.07;;;;;;;11.02;82.01;100217.52;1793491;78;21135;-90
2021/04/05 12:49:30;;;;;;;16.73;14.78;;;;;;;11.03;83.35;100211.35;1825179;78;21064;-90
2021/04/05 12:52:05;;;;;;;18.70;16.17;;;;;;;10.99;79.95;100211.28;1821807;78;21067;-90
2021/04/05 12:54:38;;;;;;;19.20;17.17;;;;;;;10.93;78.77;100217.00;1825081;78;21119;-89
2021/04/05 12:57:07;;;;;;;18.07;16.17;;;;;;;10.85;80.59;100209.00;1793425;78;21135;-90
2021/04/05 12:59:37;;;;;;;17.40;15.58;;;;;;;10.84;81.19;100215.16;1795259;78;21367;-90
2021/04/05 13:02:17;;;;;;;18.57;16.57;;;;;;;10.82;80.00;100211.84;1819344;78;21182;-90
2021/04/05 13:04:54;;;;;;;18.60;16.70;;;;;;;10.76;79.03;100209.27;1752031;80;21124;-89
2021/04/05 13:08:02;;;;;;;19.27;16.35;;;;;;;10.69;78.68;100214.17;1741773;81;21598;-90
2021/04/05 13:10:41;;;;;;;15.53;13.95;;;;;;;10.64;78.97;100215.49;1772214;80;21182;-90
2021/04/05 13:13:13;;;;;;;17.12;15.10;;;;;;;10.59;76.31;100213.27;1741266;80;21348;-91
2021/04/05 13:15:45;;;;;;;16.87;15.08;;;;;;;10.55;76.92;100214.45;1771526;80;21159;-91
2021/04/05 13:18:35;;;;;;;17.05;15.28;;;;;;;10.51;77.17;100216.97;1728603;81;21842;-91
2021/04/05 13:21:07;;;;;;;16.07;14.38;;;;;;;10.48;76.90;100214.14;1764726;80;21535;-91
2021/04/05 13:23:39;;;;;;;;;;;;;;;10.48;74.56;100208.09;1823364;77;21133;-91
2021/04/05 13:26:41;;;;;;;;;;;;;;;10.49;74.74;100212.35;1830308;77;21437;-93
2021/04/05 13:29:21;;;;;;;;;;;;;;;10.53;68.18;100205.95;1824669;77;20265;-93
2021/04/05 13:31:56;;;;;;;22.80;15.95;;;;;;;10.54;70.50;100212.80;1825871;77;20305;-91
2021/04/05 13:34:32;;;;;;;23.47;15.78;;;;;;;10.50;76.52;100208.31;1830209;77;21178;-92